createdAt,value
2022-12-01T00:01:58.063Z,6.63
2022-12-01T00:05:02.414Z,6.80
2022-12-01T00:08:09.480Z,6.85
2022-12-01T00:11:19.596Z,6.78
2022-12-01T00:14:25.153Z,7.02
2022-12-01T00:17:29.393Z,6.94
2022-12-01T00:20:33.375Z,6.99
2022-12-01T00:23:37.526Z,6.74
2022-12-01T00:26:41.527Z,6.83
2022-12-01T00:29:47.250Z,7.17
2022-12-01T00:32:53.573Z,7.24
2022-12-01T00:35:57.562Z,6.84
2022-12-01T00:39:03.467Z,6.71
2022-12-01T00:42:13.089Z,6.96
2022-12-01T00:45:17.780Z,7.02
2022-12-01T00:48:21.824Z,6.82
2022-12-01T00:51:25.958Z,7.05
2022-12-01T00:54:32.519Z,6.77
2022-12-01T00:57:36.883Z,7.02
2022-12-01T01:00:41.061Z,7.10
2022-12-01T01:03:45.128Z,7.23
2022-12-01T01:06:50.207Z,6.99
2022-12-01T01:09:54.725Z,7.20
2022-12-01T01:12:59.742Z,7.22
2022-12-01T01:16:03.857Z,7.20
2022-12-01T01:19:11.508Z,7.07
2022-12-01T01:22:15.659Z,6.98
2022-12-01T01:25:19.699Z,6.71
2022-12-01T01:28:27.388Z,6.86
2022-12-01T01:31:33.596Z,6.96
2022-12-01T01:38:09.763Z,6.82
2022-12-01T01:41:19.000Z,6.84
2022-12-01T01:44:25.560Z,6.86
2022-12-01T01:47:36.408Z,6.75
2022-12-01T01:50:41.964Z,6.64
2022-12-01T01:53:46.715Z,6.79
2022-12-01T01:56:53.261Z,6.77
2022-12-01T01:59:57.596Z,6.73
2022-12-01T02:03:01.592Z,7.00
2022-12-01T02:06:07.248Z,6.63
2022-12-01T02:09:13.674Z,6.48
2022-12-01T02:12:17.952Z,6.73
2022-12-01T02:15:23.626Z,6.52
2022-12-01T02:18:28.248Z,6.72
2022-12-01T02:21:32.282Z,6.92
2022-12-01T02:24:36.764Z,6.63
2022-12-01T02:27:40.837Z,6.79
2022-12-01T02:30:45.059Z,7.10
2022-12-01T02:33:52.825Z,6.94
2022-12-01T02:37:00.876Z,6.66
2022-12-01T02:40:06.413Z,7.12
2022-12-01T02:43:13.233Z,7.37
2022-12-01T02:46:17.697Z,7.31
2022-12-01T02:49:23.048Z,7.18
2022-12-01T02:52:28.349Z,7.09
2022-12-01T02:55:35.974Z,7.45
2022-12-01T02:58:42.381Z,7.12
2022-12-01T03:01:49.241Z,7.06
2022-12-01T03:04:56.072Z,7.25
2022-12-01T03:08:02.157Z,7.18
2022-12-01T03:11:06.390Z,6.91
2022-12-01T03:14:10.314Z,6.84
2022-12-01T03:17:15.126Z,6.98
2022-12-01T03:20:19.275Z,7.08
2022-12-01T03:23:23.454Z,7.30
2022-12-01T03:26:30.441Z,7.30
2022-12-01T03:29:34.944Z,6.97
2022-12-01T03:32:44.020Z,7.12
2022-12-01T03:35:52.944Z,6.84
2022-12-01T03:38:57.068Z,7.27
2022-12-01T03:42:05.335Z,6.83
2022-12-01T03:45:10.969Z,7.14
2022-12-01T03:48:15.386Z,7.26
2022-12-01T03:51:19.210Z,7.83
2022-12-01T03:54:24.518Z,7.19
2022-12-01T03:57:34.861Z,7.26
2022-12-01T04:00:39.272Z,7.31
2022-12-01T04:03:43.363Z,7.37
2022-12-01T04:06:47.511Z,7.22
2022-12-01T04:09:51.673Z,7.51
2022-12-01T04:12:56.187Z,7.46
2022-12-01T04:16:01.090Z,7.36
2022-12-01T04:19:05.130Z,7.52
2022-12-01T04:22:21.709Z,7.34
2022-12-01T04:25:25.913Z,7.39
2022-12-01T04:28:32.884Z,7.53
2022-12-01T04:31:39.608Z,7.59
2022-12-01T04:35:03.420Z,7.50
2022-12-01T04:38:27.424Z,7.20
2022-12-01T04:41:40.848Z,7.27
2022-12-01T04:44:46.074Z,7.12
2022-12-01T04:47:55.829Z,7.22
2022-12-01T04:51:01.417Z,7.32
2022-12-01T04:54:06.207Z,7.09
2022-12-01T04:57:10.658Z,6.97
2022-12-01T05:00:21.987Z,7.26
2022-12-01T05:06:57.138Z,6.83
2022-12-01T05:10:05.444Z,6.92
2022-12-01T05:13:10.178Z,7.10
2022-12-01T05:16:25.477Z,7.25
2022-12-01T05:23:05.671Z,7.03
2022-12-01T05:26:12.119Z,6.93
2022-12-01T05:29:16.483Z,6.70
2022-12-01T05:32:23.323Z,6.65
2022-12-01T05:35:31.068Z,6.76
2022-12-01T05:38:48.563Z,6.61
2022-12-01T05:41:58.762Z,6.61
2022-12-01T05:45:14.842Z,6.82
2022-12-01T05:48:20.050Z,6.50
2022-12-01T05:55:08.323Z,6.96
2022-12-01T05:58:12.667Z,7.05
2022-12-01T06:01:17.553Z,6.70
2022-12-01T06:04:29.417Z,6.74
2022-12-01T06:07:38.962Z,6.86
2022-12-01T06:14:10.018Z,6.67
2022-12-01T06:17:13.976Z,6.85
2022-12-01T06:20:29.830Z,6.91
2022-12-01T06:23:34.756Z,6.93
2022-12-01T06:26:41.025Z,6.63
2022-12-01T06:36:49.058Z,6.72
2022-12-01T06:39:55.598Z,6.77
2022-12-01T06:46:36.263Z,6.83
2022-12-01T06:53:19.621Z,7.01
2022-12-01T06:56:23.862Z,7.04
2022-12-01T06:59:30.337Z,7.25
2022-12-01T07:02:37.691Z,6.84
2022-12-01T07:09:17.579Z,7.03
2022-12-01T07:12:24.237Z,7.02
2022-12-01T07:15:32.344Z,7.10
2022-12-01T07:18:36.382Z,7.50
2022-12-01T07:21:40.483Z,7.33
2022-12-01T07:24:44.795Z,7.06
2022-12-01T07:27:49.020Z,6.98
2022-12-01T07:30:53.107Z,6.89
2022-12-01T07:33:57.014Z,6.92
2022-12-01T07:37:02.547Z,7.37
2022-12-01T07:40:06.766Z,7.38
2022-12-01T07:43:10.902Z,7.61
2022-12-01T07:46:20.404Z,7.31
2022-12-01T07:49:26.464Z,7.48
2022-12-01T07:52:30.298Z,7.06
2022-12-01T07:55:34.235Z,7.21
2022-12-01T07:58:39.213Z,7.28
2022-12-01T08:01:44.937Z,7.40
2022-12-01T08:04:49.077Z,7.20
2022-12-01T08:07:53.328Z,7.09
2022-12-01T08:10:57.247Z,7.47
2022-12-01T08:14:01.591Z,7.21
2022-12-01T08:17:05.725Z,6.97
2022-12-01T08:20:09.747Z,7.09
2022-12-01T08:23:13.619Z,7.13
2022-12-01T08:26:17.229Z,7.17
2022-12-01T08:29:21.306Z,7.29
2022-12-01T08:32:25.204Z,7.26
2022-12-01T08:35:29.492Z,7.11
2022-12-01T08:38:33.213Z,7.29
2022-12-01T08:41:37.248Z,7.31
2022-12-01T08:44:41.388Z,7.43
2022-12-01T08:47:45.482Z,7.41
2022-12-01T08:50:49.565Z,7.52
2022-12-01T08:53:53.618Z,7.51
2022-12-01T08:56:57.891Z,7.54
2022-12-01T09:00:03.040Z,7.70
2022-12-01T09:03:06.860Z,7.96
2022-12-01T09:06:10.722Z,7.90
2022-12-01T09:09:14.563Z,8.13
2022-12-01T09:12:18.694Z,8.40
2022-12-01T09:15:22.735Z,8.41
2022-12-01T09:18:26.457Z,8.04
2022-12-01T09:21:30.488Z,8.11
2022-12-01T09:24:34.557Z,8.06
2022-12-01T09:27:38.475Z,7.67
2022-12-01T09:30:42.569Z,8.16
2022-12-01T09:33:48.606Z,8.20
2022-12-01T09:36:52.429Z,8.15
2022-12-01T09:39:56.504Z,8.11
2022-12-01T09:43:00.723Z,8.14
2022-12-01T09:46:08.917Z,8.33
2022-12-01T09:52:42.331Z,8.47
2022-12-01T09:55:50.243Z,8.29
2022-12-01T10:02:40.834Z,8.50
2022-12-01T10:09:21.420Z,8.69
2022-12-01T10:12:25.987Z,8.58
2022-12-01T10:22:50.247Z,8.53
2022-12-01T10:29:32.423Z,8.95
2022-12-01T10:32:37.977Z,9.04
2022-12-01T10:39:14.825Z,8.75
2022-12-01T10:46:03.347Z,8.44
2022-12-01T10:52:55.102Z,9.02
2022-12-01T10:56:00.708Z,9.05
2022-12-01T10:59:05.184Z,8.94
2022-12-01T11:02:09.077Z,9.15
2022-12-01T11:05:13.381Z,8.91
2022-12-01T11:08:17.112Z,9.20
2022-12-01T11:11:24.917Z,9.23
2022-12-01T11:14:28.967Z,9.47
2022-12-01T11:17:33.222Z,9.55
2022-12-01T11:20:37.404Z,8.99
2022-12-01T11:23:45.704Z,8.85
2022-12-01T11:26:49.913Z,8.92
2022-12-01T11:29:53.812Z,8.74
2022-12-01T11:32:57.741Z,9.11
2022-12-01T11:36:01.727Z,8.97
2022-12-01T11:39:05.806Z,8.91
2022-12-01T11:42:12.797Z,8.71
2022-12-01T11:45:16.943Z,9.07
2022-12-01T11:48:20.953Z,8.88
2022-12-01T11:51:24.869Z,9.37
2022-12-01T11:54:28.754Z,8.93
2022-12-01T11:57:34.613Z,8.85
2022-12-01T12:00:39.890Z,9.35
2022-12-01T12:03:43.917Z,9.32
2022-12-01T12:06:47.786Z,9.65
2022-12-01T12:09:52.127Z,9.52
2022-12-01T12:12:56.526Z,9.60
2022-12-01T12:16:00.333Z,9.50
2022-12-01T12:19:04.130Z,9.27
2022-12-01T12:22:07.954Z,9.77
2022-12-01T12:25:11.989Z,9.90
2022-12-01T12:28:16.268Z,9.15
2022-12-01T12:31:20.361Z,9.55
2022-12-01T12:34:27.972Z,10.10
2022-12-01T12:37:32.291Z,10.17
2022-12-01T12:40:36.478Z,10.41
2022-12-01T12:43:41.891Z,9.72
2022-12-01T12:46:46.159Z,9.93
2022-12-01T12:49:50.237Z,9.41
2022-12-01T12:52:54.159Z,9.39
2022-12-01T12:55:58.469Z,9.42
2022-12-01T12:59:02.630Z,9.81
2022-12-01T13:02:06.543Z,10.23
2022-12-01T13:05:10.256Z,9.98
2022-12-01T13:08:14.056Z,9.83
2022-12-01T13:11:17.860Z,9.30
2022-12-01T13:14:21.846Z,9.89
2022-12-01T13:17:25.774Z,9.39
2022-12-01T13:20:29.717Z,8.97
2022-12-01T13:23:33.868Z,8.98
2022-12-01T13:26:37.755Z,8.66
2022-12-01T13:29:44.193Z,8.83
2022-12-01T13:32:48.366Z,9.31
2022-12-01T13:36:13.741Z,9.51
2022-12-01T13:39:16.072Z,9.69
2022-12-01T13:42:20.519Z,9.82
2022-12-01T13:45:24.355Z,9.94
2022-12-01T13:48:28.333Z,10.13
2022-12-01T13:51:32.238Z,10.13
2022-12-01T13:54:36.293Z,9.72
2022-12-01T13:57:40.424Z,9.95
2022-12-01T14:00:44.197Z,10.14
2022-12-01T14:03:50.892Z,9.77
2022-12-01T14:06:55.719Z,9.59
2022-12-01T14:09:59.906Z,9.87
2022-12-01T14:13:04.076Z,9.28
2022-12-01T14:16:08.305Z,9.18
2022-12-01T14:19:12.433Z,8.96
2022-12-01T14:22:16.286Z,8.94
2022-12-01T14:25:20.605Z,8.93
2022-12-01T14:28:24.583Z,8.78
2022-12-01T14:31:28.603Z,9.00
2022-12-01T14:34:32.563Z,8.86
2022-12-01T14:37:36.556Z,9.17
2022-12-01T14:40:40.526Z,8.80
2022-12-01T14:43:44.901Z,8.57
2022-12-01T14:46:49.088Z,8.82
2022-12-01T14:49:52.967Z,8.50
2022-12-01T14:52:57.044Z,9.04
2022-12-01T14:56:01.212Z,9.25
2022-12-01T14:59:05.221Z,9.20
2022-12-01T15:02:09.474Z,9.20
2022-12-01T15:05:13.336Z,9.44
2022-12-01T15:08:40.790Z,9.12
2022-12-01T15:11:41.155Z,9.25
2022-12-01T15:14:45.336Z,9.11
2022-12-01T15:17:49.336Z,9.29
2022-12-01T15:20:53.113Z,9.31
2022-12-01T15:23:57.067Z,9.23
2022-12-01T15:27:03.942Z,8.95
2022-12-01T15:30:08.500Z,9.39
2022-12-01T15:33:12.486Z,8.90
2022-12-01T15:36:16.391Z,8.79
2022-12-01T15:39:20.445Z,8.39
2022-12-01T15:42:24.395Z,8.41
2022-12-01T15:45:28.792Z,8.70
2022-12-01T15:48:32.689Z,9.00
2022-12-01T15:51:36.522Z,8.21
2022-12-01T15:54:40.374Z,8.76
2022-12-01T15:57:44.548Z,8.85
2022-12-01T16:00:48.560Z,8.95
2022-12-01T16:03:52.530Z,9.03
2022-12-01T16:06:56.644Z,9.43
2022-12-01T16:10:00.872Z,8.86
2022-12-01T16:13:05.218Z,9.23
2022-12-01T16:16:09.265Z,9.47
2022-12-01T16:19:13.164Z,8.57
2022-12-01T16:22:17.090Z,8.42
2022-12-01T16:25:21.211Z,8.37
2022-12-01T16:28:25.295Z,8.04
2022-12-01T16:31:29.231Z,8.60
2022-12-01T16:34:46.010Z,8.71
2022-12-01T16:37:50.854Z,8.68
2022-12-01T16:40:54.954Z,8.36
2022-12-01T16:44:26.529Z,8.43
2022-12-01T16:47:23.143Z,8.32
2022-12-01T16:50:26.903Z,8.49
2022-12-01T16:53:30.866Z,8.87
2022-12-01T16:56:34.968Z,9.04
2022-12-01T16:59:39.108Z,8.21
2022-12-01T17:02:43.262Z,8.35
2022-12-01T17:05:47.022Z,7.97
2022-12-01T17:08:51.217Z,7.84
2022-12-01T17:11:55.454Z,8.22
2022-12-01T17:14:59.516Z,8.44
2022-12-01T17:18:03.476Z,8.45
2022-12-01T17:21:07.494Z,8.53
2022-12-01T17:24:11.557Z,8.82
2022-12-01T17:27:15.540Z,8.47
2022-12-01T17:30:19.550Z,9.00
2022-12-01T17:33:23.583Z,9.03
2022-12-01T17:36:27.740Z,9.26
2022-12-01T17:39:32.214Z,9.20
2022-12-01T17:42:36.342Z,9.05
2022-12-01T17:45:40.394Z,9.10
2022-12-01T17:48:44.451Z,9.26
2022-12-01T17:51:48.313Z,9.31
2022-12-01T17:54:52.716Z,9.31
2022-12-01T17:57:56.577Z,9.32
2022-12-01T18:01:00.380Z,9.20
2022-12-01T18:04:04.361Z,9.18
2022-12-01T18:07:08.456Z,8.88
2022-12-01T18:10:12.330Z,8.83
2022-12-01T18:13:16.231Z,8.75
2022-12-01T18:16:20.369Z,9.21
2022-12-01T18:19:24.571Z,9.20
2022-12-01T18:22:28.777Z,8.97
2022-12-01T18:25:32.706Z,9.02
2022-12-01T18:28:39.049Z,9.02
2022-12-01T18:31:43.033Z,9.16
2022-12-01T18:34:47.036Z,9.10
2022-12-01T18:37:50.754Z,9.04
2022-12-01T18:40:54.981Z,8.49
2022-12-01T18:43:58.901Z,8.52
2022-12-01T18:47:02.856Z,8.85
2022-12-01T18:50:06.920Z,8.77
2022-12-01T18:53:11.157Z,8.91
2022-12-01T18:56:15.484Z,8.92
2022-12-01T18:59:19.429Z,8.89
2022-12-01T19:02:23.582Z,8.90
2022-12-01T19:05:27.636Z,8.91
2022-12-01T19:08:31.620Z,8.99
2022-12-01T19:11:35.736Z,9.02
2022-12-01T19:14:39.745Z,8.89
2022-12-01T19:17:43.948Z,8.84
2022-12-01T19:20:48.227Z,8.78
2022-12-01T19:23:52.120Z,8.70
2022-12-01T19:26:55.777Z,8.81
2022-12-01T19:30:00.004Z,8.93
2022-12-01T19:33:03.950Z,9.09
2022-12-01T19:36:08.048Z,8.99
2022-12-01T19:39:12.048Z,9.02
2022-12-01T19:42:15.989Z,9.03
2022-12-01T19:45:20.076Z,8.87
2022-12-01T19:48:24.081Z,8.89
2022-12-01T19:51:28.071Z,8.89
2022-12-01T19:54:32.128Z,8.89
2022-12-01T19:57:36.199Z,9.02
2022-12-01T20:00:40.337Z,9.12
2022-12-01T20:03:44.338Z,9.13
2022-12-01T20:06:48.152Z,9.17
2022-12-01T20:09:52.265Z,9.14
2022-12-01T20:12:56.409Z,8.90
2022-12-01T20:16:00.504Z,8.80
2022-12-01T20:19:04.443Z,9.10
2022-12-01T20:22:08.515Z,9.16
2022-12-01T20:25:12.584Z,8.92
2022-12-01T20:28:16.712Z,8.89
2022-12-01T20:31:21.091Z,8.83
2022-12-01T20:34:24.756Z,8.98
2022-12-01T20:37:28.829Z,8.66
2022-12-01T20:40:33.027Z,9.06
2022-12-01T20:43:37.608Z,8.96
2022-12-01T20:46:41.615Z,8.80
2022-12-01T20:49:45.703Z,8.68
2022-12-01T20:52:49.791Z,8.71
2022-12-01T20:55:53.951Z,8.85
2022-12-01T20:58:58.137Z,8.82
2022-12-01T21:02:02.191Z,8.86
2022-12-01T21:05:06.298Z,8.95
2022-12-01T21:08:10.416Z,9.06
2022-12-01T21:11:14.257Z,8.92
2022-12-01T21:14:17.919Z,8.97
2022-12-01T21:17:21.820Z,9.03
2022-12-01T21:20:26.025Z,8.85
2022-12-01T21:23:30.273Z,8.78
2022-12-01T21:26:34.128Z,8.76
2022-12-01T21:29:38.161Z,8.90
2022-12-01T21:32:44.008Z,8.48
2022-12-01T21:35:48.211Z,8.66
2022-12-01T21:38:52.152Z,8.78
2022-12-01T21:41:56.220Z,8.32
2022-12-01T21:45:00.253Z,8.66
2022-12-01T21:48:04.205Z,8.74
2022-12-01T21:51:08.148Z,8.78
2022-12-01T21:54:12.298Z,8.64
2022-12-01T21:57:16.323Z,8.50
2022-12-01T22:00:20.289Z,8.67
2022-12-01T22:03:24.673Z,8.91
2022-12-01T22:06:30.067Z,8.92
2022-12-01T22:09:34.562Z,8.74
2022-12-01T22:12:38.794Z,8.63
2022-12-01T22:15:42.781Z,8.66
2022-12-01T22:18:46.796Z,8.68
2022-12-01T22:21:50.623Z,8.64
2022-12-01T22:24:54.760Z,8.52
2022-12-01T22:28:01.544Z,8.85
2022-12-01T22:31:05.796Z,8.82
2022-12-01T22:34:09.704Z,8.72
2022-12-01T22:37:13.653Z,8.73
2022-12-01T22:40:17.667Z,8.38
2022-12-01T22:43:21.877Z,8.67
2022-12-01T22:46:25.977Z,8.66
2022-12-01T22:49:30.083Z,8.68
2022-12-01T22:52:34.217Z,8.69
2022-12-01T22:55:38.365Z,8.66
2022-12-01T22:58:42.532Z,8.46
2022-12-01T23:01:46.098Z,8.77
2022-12-01T23:04:50.147Z,8.43
2022-12-01T23:07:54.482Z,8.47
2022-12-01T23:10:58.492Z,8.90
2022-12-01T23:14:02.322Z,8.93
2022-12-01T23:20:28.433Z,8.95
2022-12-01T23:23:32.423Z,8.82
2022-12-01T23:26:36.536Z,8.81
2022-12-01T23:29:40.678Z,8.71
2022-12-01T23:32:44.362Z,8.63
2022-12-01T23:35:49.211Z,8.32
2022-12-01T23:38:53.204Z,8.23
2022-12-01T23:41:57.223Z,8.44
2022-12-01T23:45:01.082Z,8.65
2022-12-01T23:48:10.848Z,8.73
2022-12-01T23:51:15.209Z,8.79
2022-12-01T23:54:19.526Z,8.91
2022-12-01T23:57:23.532Z,8.86
